Flight Track Log - Related Links

Times and Time Zones

All times are in EDT time to prevent confusion due to time zone crossing. See the GLR763 flight status page for this flight to view local times or setup timezone preferences in your user account.

Time Position Orientation Groundspeed Altitude Reporting Facility
EDT Latitude Longitude Course Direction KTS MPH feet Rate Location/Type
Wed 12:58:23 PM 53.2333 -113.5333 130° Southeast 150 173 4,700  Level Edmonton Center
Wed 12:59:23 PM 53.2167 -113.4833 119° Southeast 190 219 6,000 1,550 Climbing Edmonton Center
Wed 01:00:23 PM 53.2500 -113.4333 42° Northeast 170 196 7,800 1,750 Climbing Edmonton Center
Wed 01:01:23 PM 53.3000 -113.4500 349° North 170 196 9,500 1,750 Climbing Edmonton Center
Wed 01:02:23 PM 53.3500 -113.4833 338° Northwest 170 196 11,300 1,700 Climbing Edmonton Center
Wed 01:03:23 PM 53.3833 -113.5167 329° Northwest 170 196 12,900 1,500 Climbing Edmonton Center
Wed 01:04:23 PM 53.4333 -113.5833 322° Northwest 180 207 14,300 1,400 Climbing Edmonton Center
Wed 01:05:23 PM 53.4833 -113.6167 338° Northwest 180 207 15,700 850 Climbing Edmonton Center
Wed 01:06:23 PM 53.5333 -113.6667 329° Northwest 210 242 16,000 200 Climbing Edmonton Center
Wed 01:07:23 PM 53.6000 -113.7333 329° Northwest 240 276 16,100 50 Climbing Edmonton Center
Wed 01:08:23 PM 53.6333 -113.7667 329° Northwest 250 288 16,100  Level Edmonton Center
Wed 01:09:23 PM 53.7000 -113.8500 324° Northwest 250 288 16,100  Level Edmonton Center
Wed 01:10:23 PM 53.7667 -113.9167 329° Northwest 250 288 16,100  Level Edmonton Center
Wed 01:11:23 PM 53.8333 -113.9500 344° North 250 288 16,100  Level Edmonton Center
Wed 01:12:23 PM 53.9000 -114.0333 324° Northwest 250 288 16,100  Level Edmonton Center
Wed 01:13:23 PM 53.9333 -114.1000 310° West 250 288 16,100  Level Edmonton Center
Wed 01:14:23 PM 54.0000 -114.1333 344° North 250 288 16,100  Level Edmonton Center
Wed 01:15:23 PM 54.0667 -114.2167 324° Northwest 250 288 16,100  Level Edmonton Center
Wed 01:16:23 PM 54.1333 -114.2833 330° Northwest 250 288 16,100 -50 Level Edmonton Center
Wed 01:17:23 PM 54.1833 -114.3333 330° Northwest 250 288 16,000 -50 Descending Edmonton Center
Wed 01:18:23 PM 54.2333 -114.4000 322° Northwest 250 288 16,000  Level Edmonton Center
Wed 01:19:23 PM 54.3000 -114.4667 330° Northwest 240 276 16,000  Level Edmonton Center
Wed 01:20:23 PM 54.3667 -114.5167 336° Northwest 240 276 16,000  Level Edmonton Center
Wed 01:21:23 PM 54.4167 -114.5833 322° Northwest 240 276 16,000  Level Edmonton Center
Wed 01:22:23 PM 54.4667 -114.6333 330° Northwest 240 276 16,000 50 Level Edmonton Center
Wed 01:23:23 PM 54.5333 -114.7000 330° Northwest 240 276 16,100 50 Climbing Edmonton Center
Wed 01:24:23 PM 54.5833 -114.7833 316° Northwest 240 276 16,100 -50 Level Edmonton Center
Wed 01:25:23 PM 54.6500 -114.8167 344° North 240 276 16,000 -50 Descending Edmonton Center
Wed 01:26:23 PM 54.7000 -114.9000 316° Northwest 240 276 16,000  Level Edmonton Center
Wed 01:27:23 PM 54.7500 -114.9333 339° North 240 276 16,000  Level Edmonton Center
Wed 01:28:23 PM 54.8167 -115.0167 324° Northwest 240 276 16,000  Level Edmonton Center
Wed 01:29:23 PM 54.8667 -115.0500 339° North 240 276 16,000  Level Edmonton Center
Wed 01:30:23 PM 54.9333 -115.1333 324° Northwest 240 276 16,000  Level Edmonton Center
Wed 01:31:23 PM 55.0000 -115.1833 337° Northwest 240 276 16,000  Level Edmonton Center
Wed 01:32:23 PM 55.0333 -115.2500 311° West 240 276 16,000  Level Edmonton Center
Wed 01:33:23 PM 55.1000 -115.3333 324° Northwest 240 276 16,000  Level Edmonton Center
Wed 01:34:23 PM 55.1667 -115.3667 344° North 240 276 16,000  Level Edmonton Center
Wed 01:35:23 PM 55.2000 -115.4500 305° West 240 276 16,000  Level Edmonton Center
Wed 01:36:23 PM 55.2667 -115.5167 330° Northwest 240 276 16,000  Level Edmonton Center
Wed 01:37:23 PM 55.3333 -115.5667 337° Northwest 240 276 16,000  Level Edmonton Center
Wed 01:38:23 PM 55.3833 -115.6500 317° Northwest 230 265 16,000  Level Edmonton Center
Wed 01:39:23 PM 55.4500 -115.6833 344° North 240 276 16,000  Level Edmonton Center
Wed 01:40:23 PM 55.5000 -115.7667 317° Northwest 250 288 16,000  Level Edmonton Center
Wed 01:41:23 PM 55.5500 -115.8500 317° Northwest 230 265 16,000  Level Edmonton Center
Wed 01:42:23 PM 55.6167 -115.8833 344° North 240 276 16,000  Level Edmonton Center
Wed 01:43:23 PM 55.6667 -115.9667 317° Northwest 240 276 16,000  Level Edmonton Center
Wed 01:44:23 PM 55.7167 -116.0167 331° Northwest 240 276 16,000  Level Edmonton Center
Wed 01:45:23 PM 55.7833 -116.1000 325° Northwest 240 276 16,000  Level Edmonton Center
Wed 01:46:23 PM 55.8333 -116.1333 339° North 240 276 16,000  Level Edmonton Center
Wed 01:47:23 PM 55.8833 -116.2167 317° Northwest 240 276 16,000  Level Edmonton Center
Wed 01:48:23 PM 55.9500 -116.3000 325° Northwest 230 265 16,000  Level Edmonton Center
Wed 01:49:23 PM 56.0000 -116.3333 340° North 240 276 16,000  Level Edmonton Center
Wed 01:50:23 PM 56.0667 -116.4167 325° Northwest 240 276 16,000  Level Edmonton Center
Wed 01:51:23 PM 56.1167 -116.4667 331° Northwest 240 276 16,000  Level Edmonton Center
Wed 01:52:23 PM 56.1667 -116.5500 317° Northwest 240 276 16,000  Level Edmonton Center
Wed 01:53:23 PM 56.2333 -116.6333 325° Northwest 240 276 16,000  Level Edmonton Center
Wed 01:54:23 PM 56.3000 -116.6833 337° Northwest 240 276 16,000  Level Edmonton Center
Wed 01:55:23 PM 56.3333 -116.7500 312° West 240 276 16,000  Level Edmonton Center
Wed 01:56:23 PM 56.4000 -116.8000 337° Northwest 240 276 16,000  Level Edmonton Center
Wed 01:57:23 PM 56.4667 -116.8833 325° Northwest 240 276 16,000  Level Edmonton Center
Wed 01:58:23 PM 56.5000 -116.9333 320° Northwest 240 276 16,000  Level Edmonton Center
Wed 01:59:23 PM 56.5667 -117.0167 325° Northwest 240 276 16,000  Level Edmonton Center
Wed 02:00:23 PM 56.6333 -117.1000 326° Northwest 250 288 16,000  Level Edmonton Center
Wed 02:01:23 PM 56.7000 -117.1500 338° Northwest 250 288 16,000 -50 Level Edmonton Center
Wed 02:02:23 PM 56.7333 -117.2333 306° West 250 288 15,900  Descending Edmonton Center
Wed 02:03:23 PM 56.8000 -117.3167 326° Northwest 240 276 16,000 50 Climbing Edmonton Center
Wed 02:04:23 PM 56.8667 -117.3667 338° Northwest 250 288 16,000  Level Edmonton Center
Wed 02:05:23 PM 56.9167 -117.4500 318° Northwest 250 288 16,000  Level Edmonton Center
Wed 02:06:23 PM 56.9667 -117.5000 331° Northwest 240 276 16,000  Level Edmonton Center
Wed 02:07:23 PM 57.0333 -117.5833 326° Northwest 250 288 16,000 -50 Level Edmonton Center
Wed 02:08:23 PM 57.0833 -117.6667 318° Northwest 240 276 15,900  Descending Edmonton Center
Wed 02:09:23 PM 57.1500 -117.7167 338° Northwest 240 276 16,000 50 Climbing Edmonton Center
Wed 02:10:23 PM 57.2167 -117.8000 326° Northwest 250 288 16,000  Level Edmonton Center
Wed 02:11:23 PM 57.2500 -117.8833 307° West 240 276 16,000  Level Edmonton Center
Wed 02:12:23 PM 57.3167 -117.9333 338° Northwest 250 288 16,000  Level Edmonton Center
Wed 02:13:23 PM 57.3833 -118.0167 326° Northwest 250 288 16,000  Level Edmonton Center
Wed 02:14:23 PM 57.4333 -118.0833 324° Northwest 240 276 16,000  Level Edmonton Center
Wed 02:15:23 PM 57.4833 -118.1500 324° Northwest 250 288 16,000  Level Edmonton Center
Wed 02:16:23 PM 57.5500 -118.2500 321° Northwest 240 276 16,000  Level Edmonton Center
Wed 02:17:23 PM 57.6000 -118.3000 332° Northwest 250 288 16,000  Level Edmonton Center
Wed 02:18:23 PM 57.6500 -118.3833 318° Northwest 240 276 16,000  Level Edmonton Center
Wed 02:20:00 PM 57.7451 -118.4501 339° North  Level FlightAware Approximate
Wed 02:27:00 PM 58.1386 -118.8437 324° Northwest  Level FlightAware Approximate
Wed 02:28:00 PM 58.1892 -118.9145 324° Northwest  Level FlightAware Approximate
Wed 02:29:00 PM 58.2397 -118.9855 324° Northwest  Level FlightAware Approximate

Login

Don't have an account? Register now (free) for customized features, flight alerts, and more!